createdAt,value
2019-03-11T00:02:06.878Z,16.38
2019-03-11T00:04:37.601Z,16.34
2019-03-11T00:07:06.964Z,16.29
2019-03-11T00:09:35.224Z,16.57
2019-03-11T00:12:04.006Z,16.28
2019-03-11T00:14:39.620Z,16.24
2019-03-11T00:17:13.540Z,16.27
2019-03-11T00:19:50.390Z,16.25
2019-03-11T00:22:21.381Z,16.21
2019-03-11T00:24:50.795Z,16.14
2019-03-11T00:27:20.965Z,16.09
2019-03-11T00:30:12.061Z,16.05
2019-03-11T00:35:24.722Z,16.17
2019-03-11T00:37:57.362Z,16.13
2019-03-11T00:40:27.021Z,16.13
2019-03-11T00:43:00.517Z,16.06
2019-03-11T00:45:30.209Z,16.03
2019-03-11T00:48:02.684Z,16.12
2019-03-11T00:50:40.954Z,16.00
2019-03-11T00:53:10.829Z,16.02
2019-03-11T00:55:41.856Z,16.07
2019-03-11T00:58:11.738Z,16.01
2019-03-11T01:00:42.282Z,15.97
2019-03-11T01:03:26.812Z,16.12
2019-03-11T01:05:54.627Z,16.05
2019-03-11T01:08:22.447Z,15.99
2019-03-11T01:10:50.211Z,16.02
2019-03-11T01:13:35.432Z,15.97
2019-03-11T01:16:03.265Z,15.99
2019-03-11T01:18:31.038Z,16.00
2019-03-11T01:20:58.825Z,15.88
2019-03-11T01:23:26.619Z,15.93
2019-03-11T01:25:54.371Z,16.01
2019-03-11T01:28:22.275Z,15.96
2019-03-11T01:30:50.044Z,15.99
2019-03-11T01:33:17.836Z,15.88
2019-03-11T01:35:45.970Z,16.20
2019-03-11T01:38:13.829Z,16.05
2019-03-11T01:40:41.651Z,15.98
2019-03-11T01:43:09.396Z,15.88
2019-03-11T01:46:31.868Z,15.84
2019-03-11T01:49:14.068Z,15.76
2019-03-11T01:52:01.318Z,15.78
2019-03-11T01:54:29.347Z,15.95
2019-03-11T01:56:57.189Z,15.86
2019-03-11T01:59:24.999Z,15.86
2019-03-11T02:01:53.224Z,15.76
2019-03-11T02:04:21.113Z,15.72
2019-03-11T02:06:48.846Z,15.71
2019-03-11T02:09:16.584Z,15.52
2019-03-11T02:11:44.447Z,15.77
2019-03-11T02:14:12.217Z,15.70
2019-03-11T02:16:39.957Z,15.70
2019-03-11T02:19:07.756Z,15.72
2019-03-11T02:21:35.513Z,15.61
2019-03-11T02:24:03.244Z,15.60
2019-03-11T02:26:30.980Z,15.68
2019-03-11T02:29:10.255Z,15.67
2019-03-11T02:31:37.993Z,15.65
2019-03-11T02:34:05.779Z,15.63
2019-03-11T02:36:33.532Z,15.77
2019-03-11T02:39:02.008Z,15.74
2019-03-11T02:41:29.740Z,15.70
2019-03-11T02:43:57.454Z,15.75
2019-03-11T02:46:25.947Z,15.62
2019-03-11T02:48:53.874Z,15.76
2019-03-11T02:51:21.606Z,15.73
2019-03-11T02:53:49.575Z,15.70
2019-03-11T02:56:17.319Z,15.73
2019-03-11T02:58:45.063Z,15.70
2019-03-11T03:01:32.712Z,15.54
2019-03-11T03:04:04.377Z,15.69
2019-03-11T03:06:32.122Z,15.73
2019-03-11T03:09:00.180Z,15.74
2019-03-11T03:11:28.029Z,15.81
2019-03-11T03:13:55.743Z,15.76
2019-03-11T03:16:23.593Z,15.77
2019-03-11T03:18:51.737Z,15.73
2019-03-11T03:21:19.491Z,15.71
2019-03-11T03:23:47.458Z,15.84
2019-03-11T03:26:15.178Z,15.65
2019-03-11T03:28:42.920Z,15.71
2019-03-11T03:31:10.777Z,15.63
2019-03-11T03:33:38.524Z,15.66
2019-03-11T03:36:06.264Z,15.58
2019-03-11T03:38:44.584Z,15.57
2019-03-11T03:41:12.305Z,15.57
2019-03-11T03:43:40.112Z,15.65
2019-03-11T03:46:18.909Z,15.57
2019-03-11T03:48:37.619Z,15.54
2019-03-11T03:51:05.561Z,15.44
2019-03-11T03:53:33.440Z,15.55
2019-03-11T03:56:01.188Z,15.54
2019-03-11T03:58:28.911Z,15.56
2019-03-11T04:00:56.658Z,15.60
2019-03-11T04:03:24.458Z,15.53
2019-03-11T04:05:52.568Z,15.49
2019-03-11T04:08:20.367Z,15.52
2019-03-11T04:10:48.092Z,15.61
2019-03-11T04:13:15.862Z,15.47
2019-03-11T04:15:44.024Z,15.39
2019-03-11T04:18:11.790Z,15.38
2019-03-11T04:20:39.586Z,15.43
2019-03-11T04:23:07.987Z,15.43
2019-03-11T04:25:35.769Z,15.29
2019-03-11T04:28:03.596Z,15.33
2019-03-11T04:30:31.579Z,15.25
2019-03-11T04:32:59.611Z,15.39
2019-03-11T04:35:27.371Z,15.22
2019-03-11T04:37:55.137Z,15.21
2019-03-11T04:40:23.515Z,15.27
2019-03-11T04:42:51.302Z,15.20
2019-03-11T04:45:19.039Z,15.39
2019-03-11T04:47:46.835Z,15.35
2019-03-11T04:50:14.629Z,15.27
2019-03-11T04:52:42.352Z,15.48
2019-03-11T04:55:10.692Z,15.36
2019-03-11T04:57:59.977Z,15.21
2019-03-11T05:00:28.114Z,15.22
2019-03-11T05:02:55.837Z,15.25
2019-03-11T05:05:23.579Z,15.14
2019-03-11T05:07:51.337Z,15.16
2019-03-11T05:10:19.291Z,14.95
2019-03-11T05:12:47.519Z,15.00
2019-03-11T05:15:15.301Z,14.97
2019-03-11T05:17:43.204Z,15.14
2019-03-11T05:20:11.114Z,14.98
2019-03-11T05:22:39.289Z,14.96
2019-03-11T05:25:07.352Z,15.01
2019-03-11T05:27:35.157Z,14.97
2019-03-11T05:30:25.255Z,14.96
2019-03-11T05:32:41.510Z,15.01
2019-03-11T05:35:09.386Z,14.96
2019-03-11T05:37:37.088Z,15.00
2019-03-11T05:40:04.983Z,14.93
2019-03-11T05:42:32.717Z,14.95
2019-03-11T05:45:00.559Z,14.96
2019-03-11T05:47:28.557Z,14.98
2019-03-11T05:49:56.360Z,14.93
2019-03-11T05:52:24.131Z,14.71
2019-03-11T05:54:52.031Z,15.00
2019-03-11T05:57:19.884Z,14.99
2019-03-11T05:59:49.411Z,15.00
2019-03-11T06:02:17.128Z,15.01
2019-03-11T06:04:46.065Z,14.96
2019-03-11T06:07:13.993Z,14.94
2019-03-11T06:09:46.920Z,14.94
2019-03-11T06:12:17.222Z,14.99
2019-03-11T06:14:44.968Z,15.00
2019-03-11T06:17:12.963Z,14.89
2019-03-11T06:19:40.723Z,14.88
2019-03-11T06:22:20.732Z,14.91
2019-03-11T06:24:48.470Z,14.83
2019-03-11T06:27:16.208Z,14.89
2019-03-11T06:29:44.031Z,14.80
2019-03-11T06:32:11.752Z,14.90
2019-03-11T06:34:39.520Z,15.00
2019-03-11T06:37:07.367Z,14.97
2019-03-11T06:39:35.099Z,15.02
2019-03-11T06:42:02.838Z,14.87
2019-03-11T06:44:35.459Z,14.91
2019-03-11T06:47:06.212Z,14.94
2019-03-11T06:49:33.973Z,14.85
2019-03-11T06:52:03.657Z,14.73
2019-03-11T06:54:31.215Z,14.84
2019-03-11T06:56:58.980Z,14.82
2019-03-11T06:59:26.735Z,14.95
2019-03-11T07:01:54.456Z,14.81
2019-03-11T07:04:22.344Z,14.77
2019-03-11T07:06:50.104Z,14.94
2019-03-11T07:09:17.962Z,14.91
2019-03-11T07:11:45.811Z,14.80
2019-03-11T07:14:13.859Z,14.80
2019-03-11T07:16:41.626Z,14.82
2019-03-11T07:19:09.456Z,14.86
2019-03-11T07:21:37.315Z,14.88
2019-03-11T07:24:05.282Z,14.83
2019-03-11T07:26:55.092Z,15.17
2019-03-11T07:29:22.932Z,15.27
2019-03-11T07:31:50.898Z,15.41
2019-03-11T07:34:21.561Z,15.13
2019-03-11T07:36:52.677Z,15.54
2019-03-11T07:39:20.452Z,15.26
2019-03-11T07:41:48.220Z,14.91
2019-03-11T07:44:28.529Z,14.99
2019-03-11T07:46:56.296Z,14.61
2019-03-11T07:49:25.244Z,14.44
2019-03-11T07:52:02.496Z,14.48
2019-03-11T07:54:35.687Z,14.41
2019-03-11T07:56:59.230Z,14.37
2019-03-11T07:59:27.018Z,14.33
2019-03-11T08:01:54.728Z,14.41
2019-03-11T08:04:22.479Z,14.42
2019-03-11T08:06:50.188Z,14.38
2019-03-11T08:09:17.959Z,14.41
2019-03-11T08:11:45.678Z,14.88
2019-03-11T08:14:13.393Z,14.78
2019-03-11T08:16:41.296Z,14.70
2019-03-11T08:19:09.006Z,14.81
2019-03-11T08:21:36.770Z,14.39
2019-03-11T08:24:04.567Z,14.30
2019-03-11T08:26:44.845Z,14.62
2019-03-11T08:29:05.548Z,14.61
2019-03-11T08:31:33.243Z,14.58
2019-03-11T08:34:00.968Z,14.40
2019-03-11T08:36:28.752Z,14.41
2019-03-11T08:38:56.471Z,14.29
2019-03-11T08:41:24.213Z,14.29
2019-03-11T08:43:51.943Z,14.19
2019-03-11T08:46:19.659Z,14.38
2019-03-11T08:48:47.415Z,14.41
2019-03-11T08:51:15.155Z,14.32
2019-03-11T08:53:43.295Z,14.28
2019-03-11T08:56:52.629Z,14.28
2019-03-11T08:59:23.794Z,14.28
2019-03-11T09:01:51.640Z,14.25
2019-03-11T09:04:19.410Z,14.26
2019-03-11T09:06:47.132Z,14.35
2019-03-11T09:09:14.926Z,14.45
2019-03-11T09:11:42.667Z,14.36
2019-03-11T09:14:10.462Z,14.37
2019-03-11T09:16:38.183Z,14.35
2019-03-11T09:19:06.176Z,14.46
2019-03-11T09:21:33.972Z,14.60
2019-03-11T09:24:04.264Z,14.45
2019-03-11T09:26:38.335Z,14.44
2019-03-11T09:29:04.547Z,14.42
2019-03-11T09:31:32.255Z,14.40
2019-03-11T09:33:59.981Z,14.50
2019-03-11T09:36:27.779Z,14.59
2019-03-11T09:38:55.588Z,14.76
2019-03-11T09:41:23.390Z,14.48
2019-03-11T09:43:51.119Z,14.69
2019-03-11T09:46:18.860Z,14.59
2019-03-11T09:52:08.507Z,15.00
2019-03-11T09:54:36.242Z,14.53
2019-03-11T09:57:03.960Z,14.60
2019-03-11T09:59:31.719Z,14.48
2019-03-11T10:01:59.918Z,14.68
2019-03-11T10:04:27.766Z,14.73
2019-03-11T10:06:55.575Z,14.54
2019-03-11T10:09:23.356Z,14.46
2019-03-11T10:11:52.603Z,14.56
2019-03-11T10:14:20.393Z,14.56
2019-03-11T10:16:58.678Z,14.53
2019-03-11T10:19:26.456Z,14.81
2019-03-11T10:21:54.164Z,14.73
2019-03-11T10:24:21.916Z,14.70
2019-03-11T10:26:49.719Z,14.74
2019-03-11T10:29:17.447Z,14.66
2019-03-11T10:31:45.190Z,14.66
2019-03-11T10:34:12.903Z,14.78
2019-03-11T10:36:40.666Z,14.80
2019-03-11T10:39:08.666Z,14.87
2019-03-11T10:41:36.439Z,14.92
2019-03-11T10:44:04.167Z,14.93
2019-03-11T10:46:32.013Z,14.97
2019-03-11T10:48:59.820Z,15.03
2019-03-11T10:51:27.565Z,15.05
2019-03-11T10:53:55.278Z,15.08
2019-03-11T10:56:27.585Z,15.18
2019-03-11T10:58:59.062Z,15.16
2019-03-11T11:01:27.031Z,15.15
2019-03-11T11:03:54.766Z,15.22
2019-03-11T11:06:22.533Z,15.23
2019-03-11T11:08:50.270Z,15.25
2019-03-11T11:11:17.987Z,15.36
2019-03-11T11:13:45.783Z,15.30
2019-03-11T11:16:13.535Z,15.31
2019-03-11T11:18:41.295Z,15.26
2019-03-11T11:21:09.136Z,15.21
2019-03-11T11:23:36.835Z,15.20
2019-03-11T11:26:04.572Z,15.23
2019-03-11T11:28:32.356Z,15.32
2019-03-11T11:31:00.099Z,15.36
2019-03-11T11:33:27.815Z,15.36
2019-03-11T11:36:08.911Z,15.43
2019-03-11T11:38:36.610Z,15.48
2019-03-11T11:41:04.330Z,15.51
2019-03-11T11:43:32.050Z,15.53
2019-03-11T11:46:00.059Z,15.54
2019-03-11T11:48:27.831Z,15.55
2019-03-11T11:50:55.533Z,15.53
2019-03-11T11:53:25.284Z,15.49
2019-03-11T11:55:57.724Z,15.59
2019-03-11T11:58:22.202Z,15.61
2019-03-11T12:00:50.464Z,15.84
2019-03-11T12:03:18.182Z,15.73
2019-03-11T12:05:45.889Z,15.75
2019-03-11T12:08:13.613Z,15.74
2019-03-11T12:10:43.612Z,15.85
2019-03-11T12:13:17.978Z,15.70
2019-03-11T12:15:45.693Z,15.60
2019-03-11T12:18:13.421Z,15.56
2019-03-11T12:20:41.206Z,15.65
2019-03-11T12:23:08.922Z,15.65
2019-03-11T12:25:36.666Z,15.70
2019-03-11T12:28:04.378Z,15.69
2019-03-11T12:30:32.089Z,15.62
2019-03-11T12:32:59.814Z,15.72
2019-03-11T12:35:27.641Z,15.72
2019-03-11T12:37:55.381Z,15.71
2019-03-11T12:40:23.083Z,15.71
2019-03-11T12:42:50.843Z,15.78
2019-03-11T12:45:18.608Z,15.96
2019-03-11T12:47:49.181Z,15.79
2019-03-11T12:50:28.934Z,15.78
2019-03-11T12:52:56.786Z,15.88
2019-03-11T12:55:24.526Z,15.88
2019-03-11T12:57:52.245Z,15.85
2019-03-11T13:00:20.017Z,15.99
2019-03-11T13:02:47.735Z,15.97
2019-03-11T13:05:15.466Z,15.91
2019-03-11T13:07:43.243Z,15.91
2019-03-11T13:10:12.154Z,15.92
2019-03-11T13:12:39.896Z,15.98
2019-03-11T13:15:08.022Z,15.96
2019-03-11T13:17:35.726Z,15.94
2019-03-11T13:20:03.488Z,15.85
2019-03-11T13:22:31.203Z,15.92
2019-03-11T13:25:01.998Z,15.92
2019-03-11T13:27:34.543Z,15.99
2019-03-11T13:30:02.346Z,15.93
2019-03-11T13:32:30.166Z,15.93
2019-03-11T13:34:57.871Z,16.01
2019-03-11T13:37:25.606Z,15.96
2019-03-11T13:39:53.373Z,15.95
2019-03-11T13:42:21.103Z,15.90
2019-03-11T13:44:48.806Z,15.95
2019-03-11T13:47:16.535Z,15.93
2019-03-11T13:49:44.765Z,15.96
2019-03-11T13:52:13.751Z,15.88
2019-03-11T13:54:42.290Z,15.88
2019-03-11T13:57:11.020Z,15.92
2019-03-11T13:59:38.862Z,15.97
2019-03-11T14:02:07.084Z,15.99
2019-03-11T14:04:35.533Z,16.00
2019-03-11T14:07:03.956Z,15.97
2019-03-11T14:09:32.047Z,16.15
2019-03-11T14:12:00.334Z,16.00
2019-03-11T14:14:28.380Z,16.05
2019-03-11T14:16:57.244Z,16.13
2019-03-11T14:19:25.466Z,16.07
2019-03-11T14:21:55.356Z,16.14
2019-03-11T14:24:23.920Z,16.24
2019-03-11T14:26:52.076Z,16.12
2019-03-11T14:29:20.064Z,16.12
2019-03-11T14:31:47.918Z,16.25
2019-03-11T14:34:16.164Z,16.16
2019-03-11T14:36:44.598Z,16.19
2019-03-11T14:39:14.941Z,16.21
2019-03-11T14:41:43.319Z,16.22
2019-03-11T14:44:11.557Z,16.22
2019-03-11T14:46:40.057Z,16.36
2019-03-11T14:49:08.459Z,16.22
2019-03-11T14:51:36.957Z,16.17
2019-03-11T14:54:05.495Z,16.21
2019-03-11T14:56:34.035Z,16.20
2019-03-11T14:59:02.338Z,16.22
2019-03-11T15:01:30.798Z,16.21
2019-03-11T15:03:59.222Z,16.28
2019-03-11T15:06:27.396Z,16.25
2019-03-11T15:08:55.429Z,16.25
2019-03-11T15:11:23.854Z,16.32
2019-03-11T15:13:52.159Z,16.31
2019-03-11T15:16:20.662Z,16.20
2019-03-11T15:18:49.148Z,16.29
2019-03-11T15:21:17.616Z,16.31
2019-03-11T15:23:45.644Z,16.38
2019-03-11T15:26:24.510Z,16.54
2019-03-11T15:28:44.386Z,16.40
2019-03-11T15:31:13.133Z,16.35
2019-03-11T15:33:41.773Z,16.37
2019-03-11T15:36:10.411Z,16.41
2019-03-11T15:38:38.837Z,16.39
2019-03-11T15:41:07.239Z,16.38
2019-03-11T15:43:35.609Z,16.40
2019-03-11T15:46:03.729Z,16.35
2019-03-11T15:48:32.266Z,16.78
2019-03-11T15:51:00.501Z,16.57
2019-03-11T15:53:29.282Z,16.40
2019-03-11T15:55:57.924Z,16.35
2019-03-11T15:58:26.275Z,16.34
2019-03-11T16:00:54.642Z,16.35
2019-03-11T16:03:22.493Z,16.39
2019-03-11T16:05:50.690Z,16.36
2019-03-11T16:08:19.019Z,16.32
2019-03-11T16:10:47.480Z,16.38
2019-03-11T16:13:15.286Z,16.66
2019-03-11T16:15:43.362Z,16.50
2019-03-11T16:18:11.767Z,16.94
2019-03-11T16:20:39.899Z,17.02
2019-03-11T16:23:08.153Z,16.86
2019-03-11T16:25:36.491Z,16.57
2019-03-11T16:28:04.355Z,16.45
2019-03-11T16:30:32.486Z,16.69
2019-03-11T16:33:01.274Z,17.10
2019-03-11T16:35:29.372Z,16.53
2019-03-11T16:37:58.034Z,16.42
2019-03-11T16:40:26.400Z,16.41
2019-03-11T16:42:54.310Z,16.30
2019-03-11T16:45:23.343Z,16.28
2019-03-11T16:47:51.508Z,16.67
2019-03-11T16:50:19.675Z,16.50
2019-03-11T16:52:49.225Z,16.35
2019-03-11T16:55:39.738Z,16.40
2019-03-11T16:58:07.522Z,16.61
2019-03-11T17:00:38.101Z,16.47
2019-03-11T17:03:06.945Z,16.30
2019-03-11T17:05:36.301Z,16.28
2019-03-11T17:08:04.230Z,16.32
2019-03-11T17:10:32.408Z,16.33
2019-03-11T17:13:01.525Z,16.54
2019-03-11T17:15:30.161Z,16.35
2019-03-11T17:18:17.525Z,16.28
2019-03-11T17:20:45.365Z,16.24
2019-03-11T17:23:13.626Z,16.25
2019-03-11T17:25:41.431Z,16.61
2019-03-11T17:28:09.212Z,16.36
2019-03-11T17:30:37.970Z,16.28
2019-03-11T17:33:22.918Z,16.57
2019-03-11T17:35:51.106Z,16.46
2019-03-11T17:38:19.537Z,16.42
2019-03-11T17:40:48.939Z,16.30
2019-03-11T17:43:17.649Z,16.42
2019-03-11T17:45:45.781Z,16.29
2019-03-11T17:48:14.005Z,16.21
2019-03-11T17:50:43.478Z,16.40
2019-03-11T17:53:19.646Z,16.70
2019-03-11T17:55:41.357Z,16.31
2019-03-11T17:58:10.543Z,16.24
2019-03-11T18:00:40.407Z,16.40
2019-03-11T18:03:11.951Z,16.27
2019-03-11T18:05:40.026Z,16.25
2019-03-11T18:08:08.804Z,16.46
2019-03-11T18:10:36.883Z,16.36
2019-03-11T18:13:04.855Z,16.32
2019-03-11T18:15:33.013Z,16.34
2019-03-11T18:18:02.390Z,16.46
2019-03-11T18:20:30.739Z,16.32
2019-03-11T18:23:00.124Z,16.46
2019-03-11T18:25:28.212Z,16.44
2019-03-11T18:27:56.971Z,16.35
2019-03-11T18:30:25.914Z,16.43
2019-03-11T18:32:53.924Z,16.41
2019-03-11T18:35:24.669Z,16.32
2019-03-11T18:38:04.949Z,16.38
2019-03-11T18:40:33.103Z,16.34
2019-03-11T18:43:02.643Z,16.37
2019-03-11T18:45:40.841Z,16.42
2019-03-11T18:48:09.319Z,16.44
2019-03-11T18:50:39.362Z,16.51
2019-03-11T18:53:10.118Z,16.53
2019-03-11T18:55:43.350Z,16.39
2019-03-11T18:58:12.632Z,16.42
2019-03-11T19:00:41.354Z,16.52
2019-03-11T19:03:09.246Z,16.58
2019-03-11T19:05:37.214Z,16.47
2019-03-11T19:08:05.359Z,16.71
2019-03-11T19:10:34.045Z,16.59
2019-03-11T19:13:02.618Z,16.57
2019-03-11T19:15:30.502Z,16.48
2019-03-11T19:17:58.486Z,16.48
2019-03-11T19:20:26.659Z,16.54
2019-03-11T19:22:55.237Z,16.58
2019-03-11T19:25:27.703Z,16.49
2019-03-11T19:27:55.617Z,16.59
2019-03-11T19:30:24.107Z,16.57
2019-03-11T19:32:52.115Z,16.53
2019-03-11T19:35:21.666Z,16.70
2019-03-11T19:37:50.408Z,16.56
2019-03-11T19:40:22.032Z,16.69
2019-03-11T19:42:48.773Z,16.64
2019-03-11T19:45:17.649Z,16.55
2019-03-11T19:47:47.875Z,16.59
2019-03-11T19:50:19.640Z,16.57
2019-03-11T19:52:57.790Z,16.62
2019-03-11T19:55:17.775Z,16.58
2019-03-11T19:57:45.907Z,16.57
2019-03-11T20:00:15.110Z,16.55
2019-03-11T20:02:43.272Z,16.70
2019-03-11T20:05:11.965Z,16.63
2019-03-11T20:07:40.132Z,16.60
2019-03-11T20:10:08.792Z,16.59
2019-03-11T20:12:36.824Z,16.59
2019-03-11T20:15:05.393Z,16.60
2019-03-11T20:17:34.167Z,16.62
2019-03-11T20:20:02.164Z,16.61
2019-03-11T20:22:30.127Z,16.62
2019-03-11T20:24:57.958Z,16.63
2019-03-11T20:27:26.169Z,16.67
2019-03-11T20:29:54.073Z,16.66
2019-03-11T20:32:24.214Z,16.67
2019-03-11T20:34:52.223Z,16.68
2019-03-11T20:40:14.994Z,16.64
2019-03-11T20:42:43.060Z,16.68
2019-03-11T20:45:28.952Z,16.71
2019-03-11T20:47:56.722Z,16.84
2019-03-11T20:50:24.515Z,16.95
2019-03-11T20:52:52.530Z,16.94
2019-03-11T20:55:20.351Z,17.03
2019-03-11T20:57:48.173Z,16.94
2019-03-11T21:00:17.263Z,16.84
2019-03-11T21:02:45.143Z,16.80
2019-03-11T21:05:35.370Z,16.77
2019-03-11T21:08:02.057Z,16.88
2019-03-11T21:10:29.962Z,16.73
2019-03-11T21:12:57.800Z,16.74
2019-03-11T21:15:26.594Z,16.76
2019-03-11T21:17:55.796Z,16.72
2019-03-11T21:20:23.564Z,16.70
2019-03-11T21:22:51.444Z,16.80
2019-03-11T21:25:21.173Z,17.02
2019-03-11T21:27:49.513Z,16.83
2019-03-11T21:30:18.308Z,16.84
2019-03-11T21:32:46.182Z,16.58
2019-03-11T21:35:14.152Z,16.62
2019-03-11T21:38:05.901Z,16.56
2019-03-11T21:40:33.734Z,16.52
2019-03-11T21:43:01.516Z,16.49
2019-03-11T21:45:33.856Z,16.40
2019-03-11T21:47:58.723Z,16.44
2019-03-11T21:50:26.447Z,16.47
2019-03-11T21:52:55.694Z,16.41
2019-03-11T21:58:28.308Z,16.55
2019-03-11T22:00:56.233Z,16.44
2019-03-11T22:03:24.140Z,16.34
2019-03-11T22:06:06.623Z,16.30
2019-03-11T22:08:34.506Z,16.31
2019-03-11T22:11:02.459Z,16.28
2019-03-11T22:20:00.623Z,16.21
2019-03-11T22:22:28.410Z,16.40
2019-03-11T22:24:56.565Z,16.33
2019-03-11T22:27:24.316Z,16.29
2019-03-11T22:29:52.107Z,16.23
2019-03-11T22:32:31.488Z,16.21
2019-03-11T22:35:11.680Z,16.19
2019-03-11T22:37:31.071Z,16.14
2019-03-11T22:39:58.561Z,16.15
2019-03-11T22:43:06.268Z,16.16
2019-03-11T22:50:11.336Z,16.06
2019-03-11T22:53:10.050Z,16.01
2019-03-11T22:59:38.677Z,16.05
2019-03-11T23:02:22.936Z,16.06
2019-03-11T23:11:41.330Z,16.02
2019-03-11T23:14:43.482Z,16.01
2019-03-11T23:36:35.982Z,16.01
2019-03-11T23:41:35.830Z,15.95
2019-03-11T23:44:03.619Z,15.91
2019-03-11T23:46:31.388Z,15.14
2019-03-11T23:48:59.287Z,15.91
2019-03-11T23:51:27.077Z,15.89
2019-03-11T23:53:54.918Z,15.92
2019-03-11T23:56:22.677Z,15.86
2019-03-11T23:58:50.434Z,15.87
